This is the latest recevied weather packets stored in our database for station/object RN1M-13. If no packets are shown the sender has not sent any weather packets the latest 10 day(s).
| Time | Temp. | Humidity | Pressure | Rain* | Wind** | Luminosity | Snow |
|---|---|---|---|---|---|---|---|
| 1777632496 | 15.56° C | 100% | 1018.5 hPa | - | - | - | - |
| 1777631596 | 15° C | 100% | 1018.6 hPa | - | - | - | - |
| 1777630696 | 14.44° C | 100% | 1018.8 hPa | - | - | - | - |
| 1777629796 | 12.78° C | 100% | 1019 hPa | - | - | - | - |
| 1777628896 | 13.89° C | 100% | 1018.8 hPa | - | - | - | - |
| 1777628027 | 12.78° C | 100% | 1018.9 hPa | - | - | - | - |
| 1777627996 | 12.78° C | 100% | 1018.9 hPa | - | - | - | - |
| 1777627096 | 12.78° C | 100% | 1018.8 hPa | - | - | - | - |
| 1777626196 | 12.78° C | 100% | 1018.7 hPa | - | - | - | - |
| 1777625296 | 12.78° C | 100% | 1018.2 hPa | - | - | - | - |
| 1777624395 | 12.78° C | 100% | 1018.1 hPa | - | - | - | - |
| 1777623495 | 11.67° C | 100% | 1017.2 hPa | - | - | - | - |
| 1777622597 | 11.11° C | 100% | 1017.2 hPa | - | - | - | - |
| 1777621702 | 11.11° C | 100% | 1016.6 hPa | - | - | - | - |
| 1777620802 | 11.67° C | 100% | 1016.3 hPa | - | - | - | - |
| 1777619902 | 11.67° C | 100% | 1016.1 hPa | - | - | - | - |
| 1777619001 | 10.56° C | 100% | 1016.1 hPa | - | - | - | - |
| 1777618101 | 10.56° C | 100% | 1015.9 hPa | - | - | - | - |
| 1777617201 | 12.22° C | 100% | 1015.3 hPa | - | - | - | - |
| 1777616301 | 12.22° C | 100% | 1014.8 hPa | - | - | - | - |
| 1777615401 | 11.11° C | 100% | 1014.8 hPa | - | - | - | - |
| 1777614501 | 13.33° C | 100% | 1013.8 hPa | - | - | - | - |
| 1777613601 | 12.78° C | 100% | 1014.1 hPa | - | - | - | - |
| 1777612701 | 12.78° C | 100% | 1013.8 hPa | - | - | - | - |
| 1777611803 | 12.78° C | 100% | 1014.1 hPa | - | - | - | - |
* Rain since midnight (hover to see other rain measurements)
** Current wind speed in m/s (hover to see current wind gust speed)